sensor_id;sensor_type;location;lat;lon;timestamp;P1;durP1;ratioP1;P2;durP2;ratioP2
4921;SDS011;16625;53.624;10.106;2024-03-08T07:45:33;39.90;;;18.77;;
4921;SDS011;16625;53.624;10.106;2024-03-08T07:48:01;39.00;;;17.90;;
4921;SDS011;16625;53.624;10.106;2024-03-08T07:50:34;44.00;;;21.30;;
4921;SDS011;16625;53.624;10.106;2024-03-08T07:53:02;48.93;;;20.20;;
4921;SDS011;16625;53.624;10.106;2024-03-08T07:55:31;37.63;;;18.47;;
4921;SDS011;16625;53.624;10.106;2024-03-08T07:58:00;39.30;;;19.70;;
4921;SDS011;16625;53.624;10.106;2024-03-08T08:00:28;43.03;;;18.70;;
4921;SDS011;16625;53.624;10.106;2024-03-08T08:02:58;42.80;;;19.17;;
4921;SDS011;16625;53.624;10.106;2024-03-08T08:05:25;45.77;;;22.30;;
4921;SDS011;16625;53.624;10.106;2024-03-08T08:07:52;42.73;;;20.17;;
4921;SDS011;16625;53.624;10.106;2024-03-08T08:10:20;45.67;;;19.47;;
4921;SDS011;16625;53.624;10.106;2024-03-08T08:12:49;39.63;;;19.50;;
4921;SDS011;16625;53.624;10.106;2024-03-08T08:15:17;35.53;;;19.07;;
4921;SDS011;16625;53.624;10.106;2024-03-08T08:17:44;42.67;;;21.33;;
4921;SDS011;16625;53.624;10.106;2024-03-08T08:20:14;45.13;;;21.27;;
4921;SDS011;16625;53.624;10.106;2024-03-08T08:22:43;42.20;;;20.40;;
4921;SDS011;16625;53.624;10.106;2024-03-08T08:25:10;47.57;;;22.60;;
4921;SDS011;16625;53.624;10.106;2024-03-08T08:27:38;44.57;;;20.20;;
4921;SDS011;16625;53.624;10.106;2024-03-08T08:30:05;38.43;;;21.20;;
4921;SDS011;16625;53.624;10.106;2024-03-08T08:32:33;47.53;;;21.97;;
4921;SDS011;16625;53.624;10.106;2024-03-08T08:35:04;46.00;;;22.40;;
4921;SDS011;16625;53.624;10.106;2024-03-08T08:37:34;46.00;;;21.23;;
4921;SDS011;16625;53.624;10.106;2024-03-08T08:40:02;40.03;;;19.90;;
4921;SDS011;16625;53.624;10.106;2024-03-08T08:42:34;38.23;;;21.43;;
4921;SDS011;16625;53.624;10.106;2024-03-08T08:45:01;43.43;;;19.63;;
4921;SDS011;16625;53.624;10.106;2024-03-08T08:47:28;40.90;;;19.00;;
4921;SDS011;16625;53.624;10.106;2024-03-08T08:49:55;39.63;;;18.77;;
4921;SDS011;16625;53.624;10.106;2024-03-08T08:52:23;36.17;;;17.97;;
4921;SDS011;16625;53.624;10.106;2024-03-08T08:54:56;36.47;;;18.13;;
4921;SDS011;16625;53.624;10.106;2024-03-08T08:57:25;30.00;;;17.50;;
4921;SDS011;16625;53.624;10.106;2024-03-08T09:02:41;30.40;;;18.03;;
4921;SDS011;16625;53.624;10.106;2024-03-08T09:05:51;33.90;;;17.63;;
4921;SDS011;16625;53.624;10.106;2024-03-08T09:31:43;33.10;;;15.93;;
4921;SDS011;16625;53.624;10.106;2024-03-08T09:34:16;29.70;;;14.63;;
4921;SDS011;16625;53.624;10.106;2024-03-08T09:36:43;26.70;;;16.03;;
4921;SDS011;16625;53.624;10.106;2024-03-08T10:55:52;25.33;;;13.30;;
4921;SDS011;16625;53.624;10.106;2024-03-08T10:58:36;21.53;;;13.53;;
4921;SDS011;16625;53.624;10.106;2024-03-08T11:01:27;24.20;;;11.97;;
4921;SDS011;16625;53.624;10.106;2024-03-08T11:04:17;23.67;;;13.50;;
4921;SDS011;16625;53.624;10.106;2024-03-08T11:07:00;25.10;;;13.53;;
4921;SDS011;16625;53.624;10.106;2024-03-08T11:09:31;24.70;;;14.13;;
4921;SDS011;16625;53.624;10.106;2024-03-08T11:25:09;29.57;;;13.70;;
4921;SDS011;16625;53.624;10.106;2024-03-08T11:39:39;24.00;;;12.30;;
4921;SDS011;16625;53.624;10.106;2024-03-08T11:42:27;26.57;;;13.07;;
4921;SDS011;16625;53.624;10.106;2024-03-08T11:45:07;28.53;;;14.70;;
4921;SDS011;16625;53.624;10.106;2024-03-08T11:47:44;23.33;;;12.13;;
4921;SDS011;16625;53.624;10.106;2024-03-08T11:53:17;23.17;;;12.73;;
4921;SDS011;16625;53.624;10.106;2024-03-08T11:55:47;21.90;;;11.67;;
4921;SDS011;16625;53.624;10.106;2024-03-08T11:58:15;24.77;;;12.63;;
4921;SDS011;16625;53.624;10.106;2024-03-08T12:00:42;21.27;;;12.30;;
4921;SDS011;16625;53.624;10.106;2024-03-08T12:03:11;20.63;;;11.30;;
4921;SDS011;16625;53.624;10.106;2024-03-08T12:05:39;26.20;;;13.03;;
4921;SDS011;16625;53.624;10.106;2024-03-08T12:26:29;23.87;;;12.97;;
4921;SDS011;16625;53.624;10.106;2024-03-08T12:31:58;31.27;;;15.47;;
4921;SDS011;16625;53.624;10.106;2024-03-08T16:50:06;29.43;;;15.80;;
4921;SDS011;16625;53.624;10.106;2024-03-08T16:57:41;22.40;;;11.53;;
4921;SDS011;16625;53.624;10.106;2024-03-08T17:08:09;28.70;;;12.90;;
4921;SDS011;16625;53.624;10.106;2024-03-08T17:10:37;26.47;;;11.30;;
4921;SDS011;16625;53.624;10.106;2024-03-08T17:13:06;20.97;;;12.23;;
4921;SDS011;16625;53.624;10.106;2024-03-08T17:15:35;23.67;;;11.97;;
4921;SDS011;16625;53.624;10.106;2024-03-08T17:18:03;22.43;;;12.27;;
4921;SDS011;16625;53.624;10.106;2024-03-08T17:20:34;23.03;;;12.30;;
4921;SDS011;16625;53.624;10.106;2024-03-08T17:23:05;23.53;;;11.13;;
4921;SDS011;16625;53.624;10.106;2024-03-08T17:25:33;21.80;;;12.50;;
4921;SDS011;16625;53.624;10.106;2024-03-08T17:28:03;19.83;;;9.80;;
4921;SDS011;16625;53.624;10.106;2024-03-08T17:30:33;21.63;;;9.97;;
4921;SDS011;16625;53.624;10.106;2024-03-08T17:33:03;20.87;;;11.43;;
4921;SDS011;16625;53.624;10.106;2024-03-08T17:35:34;16.47;;;11.10;;
4921;SDS011;16625;53.624;10.106;2024-03-08T17:38:05;26.83;;;11.10;;
4921;SDS011;16625;53.624;10.106;2024-03-08T17:40:35;23.13;;;11.10;;
4921;SDS011;16625;53.624;10.106;2024-03-08T17:43:06;24.83;;;11.43;;
4921;SDS011;16625;53.624;10.106;2024-03-08T17:45:36;25.40;;;12.67;;
4921;SDS011;16625;53.624;10.106;2024-03-08T17:48:06;22.50;;;11.10;;
4921;SDS011;16625;53.624;10.106;2024-03-08T17:50:37;19.57;;;11.27;;
4921;SDS011;16625;53.624;10.106;2024-03-08T17:53:06;18.50;;;9.73;;
4921;SDS011;16625;53.624;10.106;2024-03-08T17:55:33;26.20;;;11.97;;
4921;SDS011;16625;53.624;10.106;2024-03-08T17:58:02;25.13;;;11.97;;
4921;SDS011;16625;53.624;10.106;2024-03-08T18:00:31;22.83;;;11.70;;
4921;SDS011;16625;53.624;10.106;2024-03-08T18:03:00;22.93;;;11.27;;
4921;SDS011;16625;53.624;10.106;2024-03-08T18:05:30;20.57;;;11.17;;
4921;SDS011;16625;53.624;10.106;2024-03-08T18:07:57;23.13;;;11.57;;
4921;SDS011;16625;53.624;10.106;2024-03-08T18:10:27;20.53;;;10.60;;
4921;SDS011;16625;53.624;10.106;2024-03-08T18:12:55;19.70;;;10.40;;
4921;SDS011;16625;53.624;10.106;2024-03-08T18:15:24;18.23;;;9.23;;
4921;SDS011;16625;53.624;10.106;2024-03-08T18:17:51;35.33;;;11.43;;
4921;SDS011;16625;53.624;10.106;2024-03-08T18:20:20;22.67;;;11.30;;
4921;SDS011;16625;53.624;10.106;2024-03-08T18:22:54;17.80;;;10.33;;
4921;SDS011;16625;53.624;10.106;2024-03-08T18:25:22;19.27;;;11.70;;
4921;SDS011;16625;53.624;10.106;2024-03-08T18:27:52;21.77;;;10.83;;
4921;SDS011;16625;53.624;10.106;2024-03-08T18:30:19;23.80;;;10.83;;
4921;SDS011;16625;53.624;10.106;2024-03-08T18:32:47;23.17;;;12.97;;
4921;SDS011;16625;53.624;10.106;2024-03-08T18:35:14;24.50;;;12.40;;
4921;SDS011;16625;53.624;10.106;2024-03-08T18:37:43;19.40;;;12.53;;
4921;SDS011;16625;53.624;10.106;2024-03-08T18:40:12;22.37;;;12.57;;
4921;SDS011;16625;53.624;10.106;2024-03-08T18:42:41;22.80;;;12.20;;
4921;SDS011;16625;53.624;10.106;2024-03-08T18:45:11;21.90;;;11.77;;
4921;SDS011;16625;53.624;10.106;2024-03-08T18:47:40;20.03;;;12.63;;
4921;SDS011;16625;53.624;10.106;2024-03-08T18:50:09;28.13;;;12.60;;
4921;SDS011;16625;53.624;10.106;2024-03-08T18:52:38;31.77;;;13.60;;
4921;SDS011;16625;53.624;10.106;2024-03-08T18:55:06;21.60;;;11.40;;
4921;SDS011;16625;53.624;10.106;2024-03-08T18:57:35;25.13;;;13.63;;
4921;SDS011;16625;53.624;10.106;2024-03-08T19:00:06;24.37;;;12.10;;
4921;SDS011;16625;53.624;10.106;2024-03-08T19:02:40;23.40;;;12.33;;
4921;SDS011;16625;53.624;10.106;2024-03-08T19:05:07;25.93;;;13.37;;
4921;SDS011;16625;53.624;10.106;2024-03-08T19:07:40;26.57;;;12.30;;
4921;SDS011;16625;53.624;10.106;2024-03-08T19:10:08;27.70;;;13.40;;
4921;SDS011;16625;53.624;10.106;2024-03-08T19:12:38;23.07;;;13.00;;
4921;SDS011;16625;53.624;10.106;2024-03-08T19:15:07;23.40;;;11.30;;
4921;SDS011;16625;53.624;10.106;2024-03-08T19:17:35;26.37;;;13.90;;
4921;SDS011;16625;53.624;10.106;2024-03-08T19:20:10;20.97;;;11.27;;
4921;SDS011;16625;53.624;10.106;2024-03-08T19:22:43;30.70;;;12.43;;
4921;SDS011;16625;53.624;10.106;2024-03-08T19:25:10;21.97;;;12.20;;
4921;SDS011;16625;53.624;10.106;2024-03-08T19:27:38;20.93;;;9.57;;
4921;SDS011;16625;53.624;10.106;2024-03-08T19:30:07;26.80;;;13.00;;
4921;SDS011;16625;53.624;10.106;2024-03-08T19:32:35;24.73;;;12.80;;
4921;SDS011;16625;53.624;10.106;2024-03-08T19:35:06;27.87;;;11.63;;
4921;SDS011;16625;53.624;10.106;2024-03-08T19:37:36;24.03;;;11.10;;
4921;SDS011;16625;53.624;10.106;2024-03-08T19:40:06;22.97;;;12.00;;
4921;SDS011;16625;53.624;10.106;2024-03-08T19:42:38;21.13;;;11.13;;
4921;SDS011;16625;53.624;10.106;2024-03-08T19:45:10;23.43;;;11.23;;
4921;SDS011;16625;53.624;10.106;2024-03-08T19:47:37;20.73;;;11.20;;
4921;SDS011;16625;53.624;10.106;2024-03-08T19:50:09;23.20;;;10.67;;
4921;SDS011;16625;53.624;10.106;2024-03-08T19:52:40;19.80;;;12.63;;
4921;SDS011;16625;53.624;10.106;2024-03-08T19:55:11;19.70;;;11.43;;
4921;SDS011;16625;53.624;10.106;2024-03-08T19:57:41;26.10;;;12.60;;
4921;SDS011;16625;53.624;10.106;2024-03-08T20:00:11;24.50;;;11.43;;
4921;SDS011;16625;53.624;10.106;2024-03-08T20:02:45;18.67;;;11.70;;
4921;SDS011;16625;53.624;10.106;2024-03-08T20:05:15;23.17;;;12.13;;
4921;SDS011;16625;53.624;10.106;2024-03-08T20:07:46;24.70;;;11.47;;
4921;SDS011;16625;53.624;10.106;2024-03-08T20:10:17;23.33;;;11.70;;
4921;SDS011;16625;53.624;10.106;2024-03-08T20:12:45;24.47;;;11.63;;
4921;SDS011;16625;53.624;10.106;2024-03-08T20:15:13;23.87;;;11.63;;
4921;SDS011;16625;53.624;10.106;2024-03-08T20:17:42;20.30;;;10.43;;
4921;SDS011;16625;53.624;10.106;2024-03-08T20:20:11;20.33;;;11.67;;
4921;SDS011;16625;53.624;10.106;2024-03-08T20:22:42;23.53;;;12.57;;
4921;SDS011;16625;53.624;10.106;2024-03-08T20:25:10;25.33;;;13.13;;
4921;SDS011;16625;53.624;10.106;2024-03-08T20:27:42;22.73;;;12.93;;
4921;SDS011;16625;53.624;10.106;2024-03-08T20:30:13;24.43;;;13.50;;
4921;SDS011;16625;53.624;10.106;2024-03-08T20:32:46;24.47;;;12.27;;
4921;SDS011;16625;53.624;10.106;2024-03-08T20:35:13;26.70;;;13.40;;
4921;SDS011;16625;53.624;10.106;2024-03-08T20:37:47;24.30;;;11.47;;
4921;SDS011;16625;53.624;10.106;2024-03-08T20:40:14;23.67;;;12.60;;
4921;SDS011;16625;53.624;10.106;2024-03-08T20:42:48;24.80;;;11.30;;
4921;SDS011;16625;53.624;10.106;2024-03-08T20:45:16;21.60;;;11.93;;
4921;SDS011;16625;53.624;10.106;2024-03-08T20:47:46;25.70;;;12.50;;
4921;SDS011;16625;53.624;10.106;2024-03-08T20:50:13;23.57;;;11.10;;
4921;SDS011;16625;53.624;10.106;2024-03-08T20:52:43;21.87;;;12.30;;
4921;SDS011;16625;53.624;10.106;2024-03-08T20:55:12;33.43;;;13.27;;
4921;SDS011;16625;53.624;10.106;2024-03-08T20:57:40;23.53;;;11.40;;
4921;SDS011;16625;53.624;10.106;2024-03-08T21:00:11;24.83;;;12.60;;
4921;SDS011;16625;53.624;10.106;2024-03-08T21:02:44;40.47;;;13.40;;
4921;SDS011;16625;53.624;10.106;2024-03-08T21:05:12;23.00;;;12.77;;
4921;SDS011;16625;53.624;10.106;2024-03-08T21:07:43;22.00;;;12.23;;
4921;SDS011;16625;53.624;10.106;2024-03-08T21:10:12;24.33;;;13.63;;
4921;SDS011;16625;53.624;10.106;2024-03-08T21:12:39;22.57;;;13.83;;
4921;SDS011;16625;53.624;10.106;2024-03-08T21:15:08;22.17;;;12.50;;
4921;SDS011;16625;53.624;10.106;2024-03-08T21:17:37;24.37;;;13.17;;
4921;SDS011;16625;53.624;10.106;2024-03-08T21:20:05;25.27;;;12.67;;
4921;SDS011;16625;53.624;10.106;2024-03-08T21:22:36;17.90;;;10.30;;
4921;SDS011;16625;53.624;10.106;2024-03-08T21:25:05;29.00;;;15.07;;
4921;SDS011;16625;53.624;10.106;2024-03-08T21:27:37;22.03;;;12.43;;
4921;SDS011;16625;53.624;10.106;2024-03-08T21:30:04;22.50;;;11.70;;
4921;SDS011;16625;53.624;10.106;2024-03-08T21:32:35;24.40;;;13.10;;
4921;SDS011;16625;53.624;10.106;2024-03-08T21:35:03;22.20;;;13.87;;
4921;SDS011;16625;53.624;10.106;2024-03-08T21:37:32;25.13;;;14.80;;
4921;SDS011;16625;53.624;10.106;2024-03-08T21:39:59;23.93;;;11.67;;
4921;SDS011;16625;53.624;10.106;2024-03-08T21:42:26;20.63;;;10.70;;
4921;SDS011;16625;53.624;10.106;2024-03-08T21:44:55;25.80;;;12.40;;
4921;SDS011;16625;53.624;10.106;2024-03-08T21:47:23;24.23;;;13.23;;
4921;SDS011;16625;53.624;10.106;2024-03-08T21:49:50;18.93;;;10.80;;
4921;SDS011;16625;53.624;10.106;2024-03-08T21:52:19;22.60;;;11.13;;
4921;SDS011;16625;53.624;10.106;2024-03-08T21:54:47;29.53;;;12.50;;
4921;SDS011;16625;53.624;10.106;2024-03-08T21:57:15;23.70;;;12.07;;
4921;SDS011;16625;53.624;10.106;2024-03-08T21:59:44;27.67;;;12.40;;
4921;SDS011;16625;53.624;10.106;2024-03-08T22:02:12;29.00;;;12.80;;
4921;SDS011;16625;53.624;10.106;2024-03-08T22:04:40;25.23;;;12.43;;
4921;SDS011;16625;53.624;10.106;2024-03-08T22:07:07;16.33;;;9.77;;
4921;SDS011;16625;53.624;10.106;2024-03-08T22:09:34;23.67;;;13.80;;
4921;SDS011;16625;53.624;10.106;2024-03-08T22:12:01;15.97;;;9.83;;
4921;SDS011;16625;53.624;10.106;2024-03-08T22:14:29;24.00;;;12.40;;
4921;SDS011;16625;53.624;10.106;2024-03-08T22:16:56;31.20;;;12.47;;
4921;SDS011;16625;53.624;10.106;2024-03-08T22:19:24;21.47;;;13.07;;
4921;SDS011;16625;53.624;10.106;2024-03-08T22:21:51;30.20;;;13.33;;
4921;SDS011;16625;53.624;10.106;2024-03-08T22:24:17;28.60;;;13.07;;
4921;SDS011;16625;53.624;10.106;2024-03-08T22:26:44;23.90;;;11.70;;
4921;SDS011;16625;53.624;10.106;2024-03-08T22:29:11;23.60;;;12.40;;
4921;SDS011;16625;53.624;10.106;2024-03-08T22:31:38;26.00;;;13.57;;
4921;SDS011;16625;53.624;10.106;2024-03-08T22:34:06;33.60;;;14.17;;
4921;SDS011;16625;53.624;10.106;2024-03-08T22:36:35;22.60;;;12.30;;
4921;SDS011;16625;53.624;10.106;2024-03-08T22:39:01;20.83;;;12.37;;
4921;SDS011;16625;53.624;10.106;2024-03-08T22:41:35;23.60;;;11.80;;
4921;SDS011;16625;53.624;10.106;2024-03-08T22:44:02;23.63;;;13.10;;
4921;SDS011;16625;53.624;10.106;2024-03-08T22:46:29;22.60;;;11.10;;
4921;SDS011;16625;53.624;10.106;2024-03-08T22:48:57;30.40;;;13.00;;
4921;SDS011;16625;53.624;10.106;2024-03-08T22:51:24;24.60;;;12.63;;
4921;SDS011;16625;53.624;10.106;2024-03-08T22:53:53;24.83;;;12.70;;
4921;SDS011;16625;53.624;10.106;2024-03-08T22:56:20;21.90;;;12.37;;
4921;SDS011;16625;53.624;10.106;2024-03-08T22:58:47;26.90;;;12.97;;
4921;SDS011;16625;53.624;10.106;2024-03-08T23:01:15;27.73;;;13.03;;
4921;SDS011;16625;53.624;10.106;2024-03-08T23:03:41;22.50;;;11.90;;
4921;SDS011;16625;53.624;10.106;2024-03-08T23:06:10;20.33;;;10.80;;
4921;SDS011;16625;53.624;10.106;2024-03-08T23:08:38;22.50;;;11.63;;
4921;SDS011;16625;53.624;10.106;2024-03-08T23:11:11;18.43;;;10.83;;
4921;SDS011;16625;53.624;10.106;2024-03-08T23:13:39;25.20;;;13.03;;
4921;SDS011;16625;53.624;10.106;2024-03-08T23:16:07;25.40;;;12.30;;
4921;SDS011;16625;53.624;10.106;2024-03-08T23:18:34;20.93;;;12.20;;
4921;SDS011;16625;53.624;10.106;2024-03-08T23:21:02;25.77;;;12.53;;
4921;SDS011;16625;53.624;10.106;2024-03-08T23:23:33;23.07;;;12.80;;
4921;SDS011;16625;53.624;10.106;2024-03-08T23:26:01;23.43;;;12.83;;
4921;SDS011;16625;53.624;10.106;2024-03-08T23:28:30;25.50;;;12.53;;
4921;SDS011;16625;53.624;10.106;2024-03-08T23:30:57;22.63;;;11.90;;
4921;SDS011;16625;53.624;10.106;2024-03-08T23:33:25;22.47;;;11.37;;
4921;SDS011;16625;53.624;10.106;2024-03-08T23:35:52;28.03;;;13.10;;
4921;SDS011;16625;53.624;10.106;2024-03-08T23:38:19;27.43;;;13.03;;
4921;SDS011;16625;53.624;10.106;2024-03-08T23:40:46;28.43;;;13.20;;
4921;SDS011;16625;53.624;10.106;2024-03-08T23:43:13;24.37;;;13.33;;
4921;SDS011;16625;53.624;10.106;2024-03-08T23:45:42;25.53;;;12.03;;
4921;SDS011;16625;53.624;10.106;2024-03-08T23:48:09;22.87;;;12.90;;
4921;SDS011;16625;53.624;10.106;2024-03-08T23:50:36;23.90;;;12.40;;
4921;SDS011;16625;53.624;10.106;2024-03-08T23:53:07;27.40;;;13.07;;
4921;SDS011;16625;53.624;10.106;2024-03-08T23:55:36;20.73;;;11.37;;
4921;SDS011;16625;53.624;10.106;2024-03-08T23:58:04;25.23;;;13.50;;
